Time;durP1;ratioP1;P1;durP2;ratioP2;P2;SDS_P1;SDS_P2;PMS_P1;PMS_P2;Temp;Humidity;BMP_temperature;BMP_pressure;BME280_temperature;BME280_humidity;BME280_pressure;Samples;Min_cycle;Max_cycle;Signal;HPM_P1;HPM_P2
2022/01/14 00:00:59;;;;;;;30.15;11.68;;;-1.90;99.90;;;;;;5008355;28;20057;-48
2022/01/14 00:03:25;;;;;;;16.20;10.30;;;-1.90;99.90;;;;;;5013068;28;20025;-48
2022/01/14 00:05:50;;;;;;;23.55;8.60;;;-1.90;99.90;;;;;;5011130;28;20571;-48
2022/01/14 00:08:16;;;;;;;19.85;10.77;;;-1.80;99.90;;;;;;5011337;28;20040;-49
2022/01/14 00:10:49;;;;;;;16.17;7.97;;;-1.90;99.90;;;;;;5009475;28;20514;-48
2022/01/14 00:14:22;;;;;;;20.90;9.55;;;-1.90;99.90;;;;;;5006837;28;20032;-48
2022/01/14 00:16:14;;;;;;;24.02;10.77;;;-1.90;99.90;;;;;;4989173;28;20160;-48
2022/01/14 00:18:39;;;;;;;34.20;15.60;;;-1.90;99.90;;;;;;5027160;28;20041;-48
2022/01/14 00:21:05;;;;;;;20.98;9.98;;;-1.90;99.90;;;;;;5010060;28;20402;-48
2022/01/14 00:23:36;;;;;;;24.05;9.80;;;-1.90;99.90;;;;;;5011384;28;20046;-48
2022/01/14 00:31:55;;;;;;;25.63;11.63;;;-1.90;99.90;;;;;;5007329;28;20076;-48
2022/01/14 00:34:20;;;;;;;19.13;8.82;;;-1.90;99.90;;;;;;5006832;28;20272;-48
2022/01/14 00:36:46;;;;;;;26.02;9.13;;;-1.90;99.90;;;;;;5009624;28;20743;-48
2022/01/14 00:39:13;;;;;;;25.27;10.43;;;-2.00;99.90;;;;;;5013992;28;20025;-48
2022/01/14 00:41:40;;;;;;;22.75;10.75;;;-2.00;99.90;;;;;;5010164;28;20046;-48
2022/01/14 00:44:11;;;;;;;24.38;10.15;;;-2.00;99.90;;;;;;5011763;28;20041;-48
2022/01/14 00:46:42;;;;;;;23.40;11.35;;;-2.00;99.90;;;;;;5009321;28;20030;-48
2022/01/14 00:49:09;;;;;;;24.55;11.88;;;-2.00;99.90;;;;;;5010108;28;20097;-48
2022/01/14 00:51:35;;;;;;;21.60;10.73;;;-2.00;99.90;;;;;;5009662;28;20088;-49
2022/01/14 00:54:02;;;;;;;13.32;9.68;;;-2.00;99.90;;;;;;5010279;28;20029;-48
2022/01/14 00:56:44;;;;;;;27.73;10.75;;;-1.90;99.90;;;;;;5009151;28;20108;-48
2022/01/14 00:59:14;;;;;;;18.50;8.77;;;-2.00;99.90;;;;;;5010691;28;20032;-50
2022/01/14 01:01:42;;;;;;;21.50;9.43;;;-2.00;99.90;;;;;;5008647;28;20098;-50
2022/01/14 01:04:09;;;;;;;19.33;9.15;;;-2.00;99.90;;;;;;5011663;28;20041;-50
2022/01/14 01:06:35;;;;;;;21.95;11.07;;;-2.00;99.90;;;;;;5008808;28;20123;-50
2022/01/14 01:09:01;;;;;;;21.17;10.25;;;-2.00;99.90;;;;;;5015412;28;20128;-49
2022/01/14 01:11:34;;;;;;;25.58;10.52;;;-2.00;99.90;;;;;;5008297;28;20026;-49
2022/01/14 01:14:10;;;;;;;18.67;9.98;;;-2.00;99.90;;;;;;5008295;28;21584;-49
2022/01/14 01:16:35;;;;;;;16.80;9.00;;;-2.00;99.90;;;;;;5024014;28;20184;-49
2022/01/14 01:19:01;;;;;;;26.00;11.63;;;-2.00;99.90;;;;;;5007656;28;20449;-49
2022/01/14 01:21:26;;;;;;;25.50;10.30;;;-2.00;99.90;;;;;;5011353;28;20025;-49
2022/01/14 01:23:52;;;;;;;23.63;11.48;;;-2.00;99.90;;;;;;5005831;28;20054;-50
2022/01/14 01:26:28;;;;;;;17.52;9.65;;;-2.00;99.90;;;;;;5008235;28;20398;-49
2022/01/14 01:31:35;;;;;;;30.88;11.68;;;-2.00;99.90;;;;;;5007891;28;20052;-49
2022/01/14 01:34:08;;;;;;;20.70;10.38;;;-2.10;99.90;;;;;;5008061;28;20038;-50
2022/01/14 01:36:35;;;;;;;25.27;10.00;;;-2.00;99.90;;;;;;5011465;28;20030;-49
2022/01/14 01:39:01;;;;;;;23.05;12.48;;;-2.10;99.90;;;;;;5007775;28;20037;-50
2022/01/14 01:41:28;;;;;;;31.00;12.48;;;-2.10;99.90;;;;;;5006701;28;20161;-49
2022/01/14 01:43:54;;;;;;;65.90;13.02;;;-2.00;99.90;;;;;;5010045;28;20062;-49
2022/01/14 01:46:23;;;;;;;25.02;9.65;;;-2.10;99.90;;;;;;5007397;28;20032;-49
2022/01/14 01:48:50;;;;;;;;;;;-2.10;99.90;;;;;;5009763;28;20084;-49
2022/01/14 01:51:16;;;;;;;36.92;8.98;;;-2.10;99.90;;;;;;5007414;28;19917;-49
2022/01/14 01:53:42;;;;;;;16.40;8.93;;;-2.10;99.90;;;;;;5010408;28;20107;-49
2022/01/14 01:56:08;;;;;;;19.42;8.38;;;-2.20;99.90;;;;;;5008330;28;20091;-49
2022/01/14 01:58:33;;;;;;;28.83;10.32;;;-2.20;99.90;;;;;;5009608;28;20070;-49
2022/01/14 02:00:59;;;;;;;19.77;8.15;;;-2.20;99.90;;;;;;5010656;28;20045;-51
2022/01/14 02:03:25;;;;;;;32.40;11.95;;;-2.20;99.90;;;;;;5010105;28;20041;-50
2022/01/14 02:05:50;;;;;;;22.35;9.98;;;-2.30;99.90;;;;;;5010616;28;20029;-51
2022/01/14 02:08:16;;;;;;;21.13;10.15;;;-2.20;99.90;;;;;;5015884;28;20056;-50
2022/01/14 02:10:42;;;;;;;29.65;10.70;;;-2.30;99.90;;;;;;5010819;28;20374;-50
2022/01/14 02:13:10;;;;;;;23.40;10.93;;;-2.30;99.90;;;;;;5010098;28;20156;-51
2022/01/14 02:16:00;;;;;;;27.90;11.30;;;-2.20;99.90;;;;;;5012624;28;20029;-50
2022/01/14 02:18:36;;;;;;;20.85;9.50;;;-2.30;99.90;;;;;;5012415;28;20040;-50
2022/01/14 02:23:56;;;;;;;22.85;8.88;;;-2.30;99.90;;;;;;5012908;28;20423;-50
2022/01/14 02:26:23;;;;;;;20.35;10.05;;;-2.30;99.90;;;;;;5010762;28;20407;-50
2022/01/14 02:28:50;;;;;;;23.30;10.35;;;-2.30;99.90;;;;;;5011994;28;20081;-50
2022/01/14 02:31:16;;;;;;;24.80;10.18;;;-2.20;99.90;;;;;;5008994;28;20042;-51
2022/01/14 02:33:43;;;;;;;23.33;10.50;;;-2.20;99.90;;;;;;5006831;28;20029;-50
2022/01/14 02:36:09;;;;;;;29.55;9.93;;;-2.20;99.90;;;;;;5014381;28;20037;-50
2022/01/14 02:38:36;;;;;;;19.38;9.02;;;-2.20;99.90;;;;;;5012800;28;20113;-51
2022/01/14 02:41:02;;;;;;;18.92;8.13;;;-2.30;99.90;;;;;;5012952;28;20097;-50
2022/01/14 02:43:28;;;;;;;20.60;8.35;;;-2.30;99.90;;;;;;5012082;28;20029;-51
2022/01/14 02:45:56;;;;;;;21.83;10.13;;;-2.30;99.90;;;;;;5011924;28;20108;-51
2022/01/14 02:48:24;;;;;;;23.08;11.13;;;-2.30;99.90;;;;;;5008897;28;20037;-51
2022/01/14 02:56:19;;;;;;;39.25;9.82;;;-2.30;99.90;;;;;;5012980;28;20025;-50
2022/01/14 02:58:46;;;;;;;24.20;9.48;;;-2.40;99.90;;;;;;5015926;28;20041;-50
2022/01/14 03:01:19;;;;;;;13.07;7.93;;;-2.40;99.90;;;;;;5015376;28;20059;-50
2022/01/14 03:03:46;;;;;;;21.30;8.18;;;-2.40;99.90;;;;;;5014959;28;20116;-51
2022/01/14 03:06:14;;;;;;;20.42;8.38;;;-2.40;99.90;;;;;;5022291;28;20022;-51
2022/01/14 03:08:41;;;;;;;19.05;7.75;;;-2.40;99.90;;;;;;5015672;28;20898;-50
2022/01/14 03:11:10;;;;;;;18.05;8.75;;;-2.40;99.90;;;;;;5019699;28;20497;-51
2022/01/14 03:13:37;;;;;;;22.42;9.85;;;-2.40;99.90;;;;;;5014026;28;20034;-50
2022/01/14 03:16:05;;;;;;;36.65;10.50;;;-2.40;99.90;;;;;;5012550;28;20021;-50
2022/01/14 03:18:37;;;;;;;26.00;11.43;;;-2.40;99.90;;;;;;5010545;28;20474;-50
2022/01/14 03:21:14;;;;;;;24.98;10.70;;;-2.40;99.90;;;;;;5010796;28;20036;-52
2022/01/14 03:23:48;;;;;;;19.35;8.80;;;-2.40;99.90;;;;;;5013130;28;20054;-50
2022/01/14 03:26:20;;;;;;;27.35;9.38;;;-2.40;99.90;;;;;;5011234;28;20048;-50
2022/01/14 03:28:48;;;;;;;11.20;6.00;;;-2.50;99.90;;;;;;5015537;28;20108;-51
2022/01/14 03:31:14;;;;;;;19.77;8.82;;;-2.50;99.90;;;;;;5004518;28;20038;-50
2022/01/14 03:33:40;;;;;;;16.67;8.77;;;-2.50;99.90;;;;;;5011729;28;20578;-50
2022/01/14 03:36:07;;;;;;;24.88;9.15;;;-2.50;99.90;;;;;;4997066;28;20041;-51
2022/01/14 03:38:33;;;;;;;18.50;7.70;;;-2.50;99.90;;;;;;4994482;28;20034;-50
2022/01/14 03:40:59;;;;;;;16.73;7.35;;;-2.50;99.90;;;;;;4994550;28;20034;-50
2022/01/14 03:43:25;;;;;;;16.13;7.15;;;-2.50;99.90;;;;;;4993704;28;20022;-51
2022/01/14 03:45:51;;;;;;;14.15;7.68;;;-2.60;99.90;;;;;;4997927;28;20525;-50
2022/01/14 03:48:18;;;;;;;14.38;7.78;;;-2.60;99.90;;;;;;4996183;28;20032;-50
2022/01/14 03:50:43;;;;;;;16.52;8.73;;;-2.60;99.90;;;;;;4993681;28;20106;-50
2022/01/14 03:53:11;;;;;;;20.77;8.48;;;-2.60;99.90;;;;;;4996047;28;20505;-51
2022/01/14 03:55:42;;;;;;;12.27;7.35;;;-2.60;99.90;;;;;;4994268;28;20046;-50
2022/01/14 03:58:08;;;;;;;18.05;8.95;;;-2.60;99.90;;;;;;4995588;28;21826;-50
2022/01/14 04:00:35;;;;;;;22.55;9.57;;;-2.60;99.90;;;;;;4995346;28;20041;-50
2022/01/14 04:03:01;;;;;;;16.35;8.90;;;-2.70;99.90;;;;;;4994376;28;21025;-50
2022/01/14 04:05:27;;;;;;;21.73;9.52;;;-2.60;99.90;;;;;;4995873;28;20041;-50
2022/01/14 04:07:53;;;;;;;22.30;11.23;;;-2.70;99.90;;;;;;4995057;28;22927;-50
2022/01/14 04:10:19;;;;;;;17.77;8.77;;;-2.70;99.90;;;;;;4994891;28;20038;-50
2022/01/14 04:12:50;;;;;;;21.08;8.93;;;-2.70;99.90;;;;;;4997914;28;20076;-51
2022/01/14 04:18:01;;;;;;;16.13;9.10;;;-2.70;99.90;;;;;;4995370;28;20040;-50
2022/01/14 04:20:28;;;;;;;21.23;9.77;;;-2.70;99.90;;;;;;4994708;28;20452;-50
2022/01/14 04:22:54;;;;;;;18.48;11.05;;;-2.70;99.90;;;;;;4993916;28;21514;-50
2022/01/14 04:25:21;;;;;;;21.73;8.82;;;-2.70;99.90;;;;;;4993954;28;20029;-50
2022/01/14 04:27:47;;;;;;;16.10;7.57;;;-2.70;99.90;;;;;;4994824;28;20116;-51
2022/01/14 04:30:13;;;;;;;20.92;9.32;;;-2.70;99.90;;;;;;4994369;28;20556;-51
2022/01/14 04:32:40;;;;;;;23.92;9.10;;;-2.60;99.90;;;;;;4992983;28;20034;-51
2022/01/14 04:35:06;;;;;;;26.20;10.10;;;-2.70;99.90;;;;;;4997305;28;20087;-50
2022/01/14 04:37:31;;;;;;;15.55;8.30;;;-2.70;99.90;;;;;;4996165;28;20033;-52
2022/01/14 04:39:57;;;;;;;22.05;7.82;;;-2.70;99.90;;;;;;4995365;28;20076;-50
2022/01/14 04:42:24;;;;;;;26.33;9.25;;;-2.70;99.90;;;;;;4993795;28;20030;-50
2022/01/14 04:44:53;;;;;;;18.15;9.48;;;-2.70;99.90;;;;;;4994666;28;22328;-50
2022/01/14 04:47:31;;;;;;;19.95;8.57;;;-2.70;99.90;;;;;;4992715;28;20120;-52
2022/01/14 04:49:57;;;;;;;17.88;9.25;;;-2.70;99.90;;;;;;4995323;28;20026;-50
2022/01/14 04:52:23;;;;;;;23.25;9.45;;;-2.70;99.90;;;;;;4992674;28;20034;-50
2022/01/14 04:54:52;;;;;;;24.30;10.13;;;-2.70;99.90;;;;;;4995731;28;20093;-50
2022/01/14 04:57:21;;;;;;;14.18;9.15;;;-2.70;99.90;;;;;;4990003;28;21103;-50
2022/01/14 04:59:48;;;;;;;20.98;8.48;;;-2.70;99.90;;;;;;4995457;28;20040;-50
2022/01/14 05:02:14;;;;;;;26.83;10.35;;;-2.70;99.90;;;;;;4994284;28;20817;-51
2022/01/14 05:04:41;;;;;;;22.20;10.57;;;-2.80;99.90;;;;;;4994968;28;20026;-50
2022/01/14 05:07:11;;;;;;;15.85;8.73;;;-2.80;99.90;;;;;;4994363;28;20052;-51
2022/01/14 05:09:41;;;;;;;18.25;9.68;;;-2.80;99.90;;;;;;4994105;28;20030;-50
2022/01/14 05:12:09;;;;;;;21.15;8.80;;;-2.80;99.90;;;;;;4994451;28;20125;-50
2022/01/14 05:14:36;;;;;;;20.88;9.60;;;-2.80;99.90;;;;;;4993353;28;20737;-50
2022/01/14 05:17:02;;;;;;;17.83;8.05;;;-2.90;99.90;;;;;;5005854;28;20068;-50
2022/01/14 05:19:28;;;;;;;12.65;7.82;;;-2.90;99.90;;;;;;4994236;28;20033;-50
2022/01/14 05:21:55;;;;;;;23.45;9.38;;;-2.90;99.90;;;;;;4992825;28;20380;-50
2022/01/14 05:24:22;;;;;;;13.65;8.45;;;-2.90;99.90;;;;;;4993758;28;20044;-52
2022/01/14 05:26:52;;;;;;;14.48;8.30;;;-2.90;99.90;;;;;;4992238;28;20044;-50
2022/01/14 05:29:18;;;;;;;17.95;8.18;;;-2.90;99.90;;;;;;4991256;28;20037;-51
2022/01/14 05:31:50;;;;;;;25.40;10.13;;;-2.90;99.90;;;;;;4993582;28;20040;-50
2022/01/14 05:34:16;;;;;;;19.45;9.00;;;-2.90;99.90;;;;;;4992129;28;20539;-51
2022/01/14 05:36:42;;;;;;;18.90;10.40;;;-2.90;99.90;;;;;;4992026;28;21656;-50
2022/01/14 05:39:09;;;;;;;16.17;6.75;;;-2.90;99.90;;;;;;4995219;28;20041;-51
2022/01/14 05:41:35;;;;;;;19.25;9.85;;;-2.90;99.90;;;;;;4990666;28;20120;-50
2022/01/14 05:44:01;;;;;;;19.58;9.45;;;-2.90;99.90;;;;;;4994142;28;20140;-50
2022/01/14 05:46:27;;;;;;;19.67;8.20;;;-2.90;99.90;;;;;;4993085;28;20026;-50
2022/01/14 05:48:53;;;;;;;16.40;7.85;;;-3.00;99.90;;;;;;4991524;28;20026;-50
2022/01/14 05:51:19;;;;;;;21.65;11.55;;;-3.00;99.90;;;;;;4992540;28;20030;-51
2022/01/14 05:53:45;;;;;;;17.83;8.30;;;-3.00;99.90;;;;;;4992231;28;20041;-50
2022/01/14 05:56:10;;;;;;;16.02;8.75;;;-3.00;99.90;;;;;;4992474;28;20630;-51
2022/01/14 05:58:36;;;;;;;18.35;10.50;;;-3.00;99.90;;;;;;4993036;28;20025;-52
2022/01/14 06:01:02;;;;;;;13.40;9.02;;;-3.00;99.90;;;;;;4991272;28;21038;-50
2022/01/14 06:03:28;;;;;;;23.95;11.27;;;-3.00;99.90;;;;;;4992992;28;20135;-50
2022/01/14 06:05:54;;;;;;;13.65;9.43;;;-3.00;99.90;;;;;;4993182;28;23020;-51
2022/01/14 06:08:19;;;;;;;23.50;9.65;;;-3.00;99.90;;;;;;4991862;28;20072;-51
2022/01/14 06:10:45;;;;;;;25.20;10.77;;;-3.00;99.90;;;;;;4996165;28;20036;-52
2022/01/14 06:13:11;;;;;;;16.17;8.52;;;-3.00;99.90;;;;;;4995661;28;20588;-52
2022/01/14 06:15:36;;;;;;;15.00;8.55;;;-3.00;99.90;;;;;;4997618;28;20042;-51
2022/01/14 06:18:03;;;;;;;18.73;8.85;;;-3.00;99.90;;;;;;4996051;28;20038;-51
2022/01/14 06:20:28;;;;;;;19.92;9.27;;;-3.00;99.90;;;;;;4993689;28;20052;-50
2022/01/14 06:22:54;;;;;;;18.02;10.68;;;-3.00;99.90;;;;;;5008745;28;20051;-50
2022/01/14 06:25:20;;;;;;;16.63;7.60;;;-3.10;99.90;;;;;;4998581;28;20690;-50
2022/01/14 06:27:46;;;;;;;30.48;11.95;;;-3.10;99.90;;;;;;4994481;28;20026;-51
2022/01/14 06:30:12;;;;;;;23.80;11.05;;;-3.00;99.90;;;;;;5007825;28;20833;-50
2022/01/14 06:32:42;;;;;;;19.58;10.82;;;-3.10;99.90;;;;;;4995499;28;20513;-51
2022/01/14 06:35:10;;;;;;;13.23;8.10;;;-3.10;99.90;;;;;;4997333;28;21091;-50
2022/01/14 06:37:35;;;;;;;21.67;11.93;;;-3.10;99.90;;;;;;4996363;28;20022;-51
2022/01/14 06:40:01;;;;;;;21.98;10.35;;;-3.10;99.90;;;;;;4995251;28;20066;-50
2022/01/14 06:42:27;;;;;;;13.82;8.95;;;-3.10;99.90;;;;;;4997862;28;20030;-51
2022/01/14 06:44:53;;;;;;;18.58;11.48;;;-3.10;99.90;;;;;;4996417;28;20022;-52
2022/01/14 06:47:18;;;;;;;18.33;10.30;;;-3.10;99.90;;;;;;4996855;28;20038;-50
2022/01/14 06:49:44;;;;;;;24.20;9.00;;;-3.10;99.90;;;;;;4999100;28;20029;-50
2022/01/14 06:52:10;;;;;;;22.98;11.25;;;-3.10;99.90;;;;;;4996026;28;20030;-50
2022/01/14 06:54:35;;;;;;;13.00;8.15;;;-3.10;99.90;;;;;;4995358;28;20030;-50
2022/01/14 06:57:01;;;;;;;21.30;9.98;;;-3.10;99.90;;;;;;4997055;28;20034;-51
2022/01/14 06:59:27;;;;;;;24.38;10.60;;;-3.10;99.90;;;;;;4998838;28;20084;-51
2022/01/14 07:01:53;;;;;;;18.73;10.27;;;-3.10;99.90;;;;;;4993830;28;20078;-50
2022/01/14 07:04:19;;;;;;;17.30;8.98;;;-3.10;99.90;;;;;;4996643;28;20030;-51
2022/01/14 07:06:45;;;;;;;22.35;12.10;;;-3.10;99.90;;;;;;4993546;28;20382;-50
2022/01/14 07:09:10;;;;;;;24.10;9.48;;;-3.10;99.90;;;;;;4994548;28;20068;-50
2022/01/14 07:11:37;;;;;;;17.05;9.75;;;-3.10;99.90;;;;;;4992396;28;20109;-50
2022/01/14 07:14:07;;;;;;;29.40;11.13;;;-3.10;99.90;;;;;;4992203;28;20113;-52
2022/01/14 07:16:34;;;;;;;22.63;9.68;;;-3.10;99.90;;;;;;4989385;28;20704;-51
2022/01/14 07:19:01;;;;;;;15.15;9.50;;;-3.10;99.90;;;;;;4993195;28;20555;-51
2022/01/14 07:21:27;;;;;;;27.45;10.32;;;-3.10;99.90;;;;;;4992160;28;21841;-50
2022/01/14 07:23:52;;;;;;;23.13;11.70;;;-3.10;99.90;;;;;;4996776;28;20041;-51
2022/01/14 07:26:19;;;;;;;19.80;9.98;;;-3.10;99.90;;;;;;4991787;28;20029;-50
2022/01/14 07:28:45;;;;;;;21.70;10.55;;;-3.10;99.90;;;;;;4992624;28;20491;-50
2022/01/14 07:31:11;;;;;;;24.80;11.52;;;-3.10;99.90;;;;;;5003054;28;20061;-51
2022/01/14 07:33:38;;;;;;;17.23;10.68;;;-3.10;99.90;;;;;;4991163;28;20052;-52
2022/01/14 07:36:04;;;;;;;28.70;13.23;;;-3.10;99.90;;;;;;5008222;28;20032;-52
2022/01/14 07:38:29;;;;;;;22.83;11.00;;;-3.10;99.90;;;;;;4989967;28;20034;-51
2022/01/14 07:40:55;;;;;;;16.30;8.38;;;-3.10;99.90;;;;;;4991720;28;20509;-50
2022/01/14 07:43:21;;;;;;;19.30;10.80;;;-3.10;99.90;;;;;;4992762;28;20506;-51
2022/01/14 07:45:48;;;;;;;16.05;8.30;;;-3.10;99.90;;;;;;4989675;28;20033;-53
2022/01/14 07:48:15;;;;;;;28.20;11.15;;;-3.10;99.90;;;;;;4977707;28;20048;-50
2022/01/14 07:50:41;;;;;;;18.08;9.63;;;-3.10;99.90;;;;;;4989148;28;20083;-51
2022/01/14 07:53:06;;;;;;;22.20;10.90;;;-3.10;99.90;;;;;;4993122;28;20027;-51
2022/01/14 07:55:32;;;;;;;15.05;9.18;;;-3.00;99.90;;;;;;4989456;28;20041;-50
2022/01/14 07:57:58;;;;;;;18.58;10.38;;;-3.00;99.90;;;;;;4985662;28;20063;-50
2022/01/14 08:00:24;;;;;;;25.15;11.93;;;-3.00;99.90;;;;;;4989841;28;20030;-51
2022/01/14 08:02:49;;;;;;;22.83;10.88;;;-3.00;99.90;;;;;;4989463;28;20033;-48
2022/01/14 08:05:16;;;;;;;24.98;12.93;;;-3.00;99.90;;;;;;4992988;28;20126;-50
2022/01/14 08:07:46;;;;;;;22.98;10.75;;;-2.90;99.90;;;;;;5002617;28;20057;-49
2022/01/14 08:10:15;;;;;;;20.38;8.82;;;-2.90;99.90;;;;;;4990579;28;20034;-51
2022/01/14 08:12:42;;;;;;;24.63;11.05;;;-2.90;99.90;;;;;;4992782;28;20030;-51
2022/01/14 08:15:09;;;;;;;21.95;12.90;;;-2.90;99.90;;;;;;4991871;28;20064;-49
2022/01/14 08:17:35;;;;;;;20.40;11.00;;;-2.90;99.90;;;;;;5006106;28;20030;-49
2022/01/14 08:20:01;;;;;;;29.50;10.85;;;-2.80;99.90;;;;;;4987716;28;20530;-49
2022/01/14 08:22:28;;;;;;;14.52;9.95;;;-2.80;99.90;;;;;;4987165;28;20581;-49
2022/01/14 08:24:55;;;;;;;29.15;12.50;;;-2.80;99.90;;;;;;4990067;28;20049;-49
2022/01/14 08:27:21;;;;;;;20.90;10.90;;;-2.70;99.90;;;;;;4992470;28;20143;-49
2022/01/14 08:29:47;;;;;;;24.90;11.70;;;-2.70;99.90;;;;;;5000924;28;20031;-49
2022/01/14 08:32:14;;;;;;;21.33;8.55;;;-2.70;99.90;;;;;;4992916;28;20038;-49
2022/01/14 08:34:40;;;;;;;25.48;11.55;;;-2.60;99.90;;;;;;4992938;28;20037;-50
2022/01/14 08:37:06;;;;;;;24.30;10.65;;;-2.60;99.90;;;;;;4992598;28;20672;-49
2022/01/14 08:39:33;;;;;;;24.70;10.68;;;-2.60;99.90;;;;;;4992422;28;20112;-50
2022/01/14 08:41:59;;;;;;;25.77;11.48;;;-2.50;99.90;;;;;;4990805;28;20034;-49
2022/01/14 08:44:26;;;;;;;19.45;11.60;;;-2.50;99.90;;;;;;5007181;28;20123;-50
2022/01/14 08:46:52;;;;;;;23.95;13.13;;;-2.50;99.90;;;;;;5009378;28;20036;-50
2022/01/14 08:49:18;;;;;;;17.27;10.05;;;-2.40;99.90;;;;;;4990811;28;20029;-49
2022/01/14 08:51:44;;;;;;;22.45;12.27;;;-2.40;99.90;;;;;;4998116;28;20088;-49
2022/01/14 08:54:10;;;;;;;17.75;10.57;;;-2.40;99.90;;;;;;4992775;28;20037;-49
2022/01/14 08:56:36;;;;;;;26.80;11.95;;;-2.30;99.90;;;;;;4990648;28;20033;-49
2022/01/14 08:59:03;;;;;;;23.50;10.30;;;-2.30;99.90;;;;;;4994006;28;20056;-49
2022/01/14 09:01:30;;;;;;;24.10;12.75;;;-2.20;99.90;;;;;;4992633;28;20045;-49
2022/01/14 09:03:56;;;;;;;18.25;10.07;;;-2.20;99.90;;;;;;4990143;28;20419;-49
2022/01/14 09:06:22;;;;;;;25.23;13.02;;;-2.10;99.90;;;;;;4994280;28;20044;-49
2022/01/14 09:08:48;;;;;;;21.25;9.38;;;-2.00;99.90;;;;;;4993651;28;20033;-49
2022/01/14 09:11:14;;;;;;;23.45;11.77;;;-2.00;99.90;;;;;;5005160;28;20471;-50
2022/01/14 09:13:40;;;;;;;26.17;10.60;;;-1.90;99.90;;;;;;4994404;28;20117;-49
2022/01/14 09:16:06;;;;;;;22.88;11.27;;;-1.90;99.90;;;;;;4986878;28;20107;-50
2022/01/14 09:18:32;;;;;;;21.90;11.65;;;-1.80;99.90;;;;;;4993174;28;20033;-50
2022/01/14 09:20:58;;;;;;;23.90;10.10;;;-1.80;99.90;;;;;;4989838;28;20022;-50
2022/01/14 09:23:25;;;;;;;28.65;11.75;;;-1.80;99.90;;;;;;4989745;28;20042;-50
2022/01/14 09:25:55;;;;;;;20.88;11.32;;;-1.70;99.90;;;;;;4988579;28;20060;-50
2022/01/14 09:28:21;;;;;;;22.85;11.75;;;-1.70;99.90;;;;;;5007129;28;20873;-50
2022/01/14 09:30:47;;;;;;;25.38;10.93;;;-1.60;99.90;;;;;;4989993;28;20042;-50
2022/01/14 09:33:16;;;;;;;21.92;11.50;;;-1.60;99.90;;;;;;4991035;28;20611;-51
2022/01/14 09:35:41;;;;;;;26.48;11.30;;;-1.50;99.90;;;;;;5004353;28;20045;-50
2022/01/14 09:38:07;;;;;;;22.77;11.45;;;-1.40;99.90;;;;;;4994685;28;20037;-50
2022/01/14 09:40:34;;;;;;;19.17;10.30;;;-1.40;99.90;;;;;;4988028;28;20717;-51
2022/01/14 09:43:01;;;;;;;24.92;11.07;;;-1.30;99.90;;;;;;4991585;28;20379;-50
2022/01/14 09:45:29;;;;;;;26.05;14.00;;;-1.30;99.90;;;;;;5006436;28;20022;-51
2022/01/14 09:47:55;;;;;;;25.20;12.65;;;-1.20;99.90;;;;;;4971465;28;20037;-51
2022/01/14 09:50:23;;;;;;;24.83;12.75;;;-1.20;99.90;;;;;;5006283;28;20041;-50
2022/01/14 09:52:51;;;;;;;27.75;11.98;;;-1.10;99.90;;;;;;5004778;28;20029;-50
2022/01/14 09:55:22;;;;;;;21.60;10.75;;;-1.10;99.90;;;;;;4991090;28;20034;-50
2022/01/14 09:57:48;;;;;;;25.77;12.10;;;-1.00;99.90;;;;;;4991773;28;20514;-50
2022/01/14 10:00:15;;;;;;;22.70;10.57;;;-0.90;99.90;;;;;;5002193;28;20037;-50
2022/01/14 10:02:43;;;;;;;25.73;12.35;;;-0.80;99.90;;;;;;4989261;28;20029;-50
2022/01/14 10:05:29;;;;;;;21.98;10.88;;;-0.80;99.90;;;;;;4991661;28;20036;-50
2022/01/14 10:08:09;;;;;;;27.50;12.65;;;-0.70;99.90;;;;;;4993739;28;20391;-50
2022/01/14 10:10:38;;;;;;;27.52;11.10;;;-0.70;99.90;;;;;;5007444;28;21445;-50
2022/01/14 10:13:18;;;;;;;;;;;-0.60;99.90;;;;;;4991464;28;20030;-50
2022/01/14 10:15:53;;;;;;;18.58;10.48;;;-0.50;99.90;;;;;;4991244;28;20299;-50
2022/01/14 10:18:21;;;;;;;18.17;11.55;;;-0.40;99.90;;;;;;4990570;28;20030;-50
2022/01/14 10:20:48;;;;;;;22.73;10.07;;;-0.40;99.90;;;;;;5006326;28;20041;-50
2022/01/14 10:23:15;;;;;;;27.15;13.05;;;-0.30;99.90;;;;;;5005303;28;20042;-50
2022/01/14 10:25:54;;;;;;;21.27;11.07;;;-0.30;99.90;;;;;;4986639;28;20026;-51
2022/01/14 10:28:20;;;;;;;29.10;13.15;;;-0.20;99.90;;;;;;4991487;28;20053;-51
2022/01/14 10:30:48;;;;;;;23.88;12.20;;;-0.20;99.90;;;;;;4983215;28;20037;-50
2022/01/14 10:33:19;;;;;;;27.80;13.68;;;-0.10;99.90;;;;;;4987485;28;20034;-50
2022/01/14 10:35:46;;;;;;;22.35;10.82;;;-0.10;99.90;;;;;;4988293;28;20536;-50
2022/01/14 10:38:14;;;;;;;25.10;12.45;;;-0.10;99.90;;;;;;4991072;28;20041;-50
2022/01/14 10:40:46;;;;;;;22.60;10.73;;;0.00;99.90;;;;;;4987721;28;20095;-50
2022/01/14 10:43:15;;;;;;;21.83;11.98;;;0.20;99.90;;;;;;5002992;28;20038;-50
2022/01/14 10:45:42;;;;;;;25.52;12.20;;;0.20;99.90;;;;;;4990500;28;20564;-50
2022/01/14 10:48:16;;;;;;;25.05;11.88;;;0.20;99.90;;;;;;4989096;28;20057;-50
2022/01/14 10:51:03;;;;;;;32.05;15.93;;;0.30;99.90;;;;;;4969568;28;20030;-51
2022/01/14 10:53:35;;;;;;;28.83;14.55;;;0.40;99.90;;;;;;4987934;28;20173;-52
2022/01/14 10:56:11;;;;;;;29.98;15.50;;;0.40;99.90;;;;;;4989910;28;20029;-50
2022/01/14 10:58:45;;;;;;;23.48;12.52;;;0.50;99.90;;;;;;5005126;28;20030;-50
2022/01/14 11:01:20;;;;;;;25.10;12.30;;;0.50;99.90;;;;;;4990107;28;20573;-50
2022/01/14 11:03:48;;;;;;;23.58;12.55;;;0.50;99.90;;;;;;4992786;28;20082;-50
2022/01/14 11:06:15;;;;;;;;;;;0.60;99.90;;;;;;5009771;28;20084;-50
2022/01/14 11:08:41;;;;;;;22.42;11.27;;;0.60;99.90;;;;;;4993610;28;19968;-50
2022/01/14 11:11:08;;;;;;;29.20;13.68;;;0.70;99.90;;;;;;4991443;28;20116;-51
2022/01/14 11:13:34;;;;;;;27.75;12.35;;;0.80;99.90;;;;;;4989364;28;20037;-50
2022/01/14 11:16:00;;;;;;;30.27;14.90;;;0.90;99.90;;;;;;4993456;28;20121;-52
2022/01/14 11:18:26;;;;;;;24.63;11.60;;;1.00;99.90;;;;;;4993253;28;20107;-51
2022/01/14 11:23:38;;;;;;;32.30;13.65;;;1.20;99.90;;;;;;4991977;28;20280;-52
2022/01/14 11:26:11;;;;;;;23.33;14.00;;;1.30;99.90;;;;;;5015580;28;20045;-51
2022/01/14 11:28:41;;;;;;;25.77;12.55;;;1.40;99.90;;;;;;4999373;28;20064;-50
2022/01/14 11:31:31;;;;;;;27.27;13.93;;;1.40;99.90;;;;;;5001656;28;20042;-50
2022/01/14 11:34:00;;;;;;;33.85;15.45;;;1.40;99.90;;;;;;4993677;28;20053;-50
2022/01/14 11:36:49;;;;;;;30.58;15.27;;;1.50;99.90;;;;;;4995228;28;20030;-50
2022/01/14 11:39:20;;;;;;;35.13;16.83;;;1.50;99.90;;;;;;4995534;28;20026;-50
2022/01/14 11:41:59;;;;;;;29.65;13.77;;;1.60;99.90;;;;;;4996258;28;20063;-51
2022/01/14 11:45:03;;;;;;;26.63;12.70;;;1.70;99.90;;;;;;5008110;28;20030;-51
2022/01/14 11:47:43;;;;;;;22.45;11.68;;;1.70;99.90;;;;;;4994416;28;20663;-50
2022/01/14 11:50:23;;;;;;;21.15;12.20;;;1.80;99.90;;;;;;4996015;28;20113;-51
2022/01/14 11:52:50;;;;;;;33.15;12.07;;;1.80;99.90;;;;;;4991771;28;20077;-51
2022/01/14 11:55:19;;;;;;;25.75;12.07;;;2.00;99.90;;;;;;4990884;28;20034;-50
2022/01/14 11:57:48;;;;;;;21.27;11.20;;;2.10;99.90;;;;;;4993624;28;20740;-51
2022/01/14 12:00:47;;;;;;;31.48;13.73;;;2.10;99.90;;;;;;5009816;28;20033;-50
2022/01/14 12:03:14;;;;;;;21.75;11.40;;;2.20;99.90;;;;;;4994607;28;20504;-51
2022/01/14 12:05:55;;;;;;;20.20;11.65;;;2.30;99.90;;;;;;4992455;28;20354;-50
2022/01/14 12:08:28;;;;;;;25.67;9.95;;;2.30;99.90;;;;;;4991624;28;20040;-50
2022/01/14 12:11:16;;;;;;;19.80;9.25;;;2.30;99.90;;;;;;4986617;28;20036;-52
2022/01/14 12:14:12;;;;;;;22.15;11.32;;;2.50;99.90;;;;;;4990237;28;20065;-51
2022/01/14 12:16:47;;;;;;;20.95;9.85;;;2.60;99.90;;;;;;4992200;28;20037;-50
2022/01/14 12:19:17;;;;;;;19.92;10.63;;;2.60;99.90;;;;;;4989265;28;20037;-50
2022/01/14 12:21:49;;;;;;;16.08;10.05;;;2.60;99.90;;;;;;4989735;28;20489;-51
2022/01/14 12:24:15;;;;;;;20.83;10.05;;;2.70;99.90;;;;;;4991659;28;20124;-50
2022/01/14 12:26:54;;;;;;;24.27;10.32;;;2.80;99.90;;;;;;4991468;28;20819;-50
2022/01/14 12:29:32;;;;;;;22.27;11.85;;;2.90;99.90;;;;;;4990628;28;20033;-52
2022/01/14 12:32:05;;;;;;;20.38;9.82;;;2.90;99.90;;;;;;5005242;28;20076;-51
2022/01/14 12:34:40;;;;;;;16.20;9.48;;;2.90;99.90;;;;;;4989888;28;20296;-49
2022/01/14 12:37:10;;;;;;;22.83;11.10;;;3.00;99.90;;;;;;4988436;28;20033;-51
2022/01/14 12:39:38;;;;;;;21.48;10.20;;;3.00;99.90;;;;;;4992486;28;20084;-49
2022/01/14 12:42:04;;;;;;;15.85;9.43;;;3.10;99.90;;;;;;4986548;28;20053;-50
2022/01/14 12:44:30;;;;;;;20.67;9.98;;;3.10;99.90;;;;;;4991651;28;20067;-50
2022/01/14 12:47:18;;;;;;;17.48;8.85;;;3.20;99.90;;;;;;5009208;28;20041;-50
2022/01/14 12:49:44;;;;;;;19.23;10.07;;;3.20;99.90;;;;;;4994844;28;20084;-50
2022/01/14 12:52:16;;;;;;;19.38;9.52;;;3.30;99.90;;;;;;5006544;28;20042;-51
2022/01/14 12:54:46;;;;;;;18.50;10.43;;;3.40;99.90;;;;;;5007255;28;20072;-50
2022/01/14 12:57:17;;;;;;;18.52;9.35;;;3.50;99.90;;;;;;4989538;28;20084;-51
2022/01/14 12:59:45;;;;;;;17.13;8.57;;;3.60;99.90;;;;;;4993951;28;20038;-50
2022/01/14 13:02:19;;;;;;;17.38;9.48;;;3.60;99.90;;;;;;4987371;28;20046;-51